createdAt,value
2019-03-08T00:00:01.482Z,9.80
2019-03-08T00:02:27.986Z,9.80
2019-03-08T00:04:54.440Z,9.60
2019-03-08T00:07:21.025Z,9.70
2019-03-08T00:09:47.569Z,9.80
2019-03-08T00:12:14.243Z,9.70
2019-03-08T00:14:40.794Z,9.70
2019-03-08T00:17:07.449Z,9.60
2019-03-08T00:19:34.248Z,9.80
2019-03-08T00:22:00.926Z,9.90
2019-03-08T00:24:27.406Z,9.70
2019-03-08T00:26:53.959Z,9.50
2019-03-08T00:29:20.523Z,9.70
2019-03-08T00:31:46.989Z,9.60
2019-03-08T00:34:13.577Z,9.80
2019-03-08T00:36:40.127Z,9.70
2019-03-08T00:39:06.796Z,9.70
2019-03-08T00:41:33.355Z,9.90
2019-03-08T00:43:59.839Z,9.80
2019-03-08T00:46:26.700Z,9.60
2019-03-08T00:48:53.184Z,9.70
2019-03-08T00:51:20.056Z,9.80
2019-03-08T00:53:46.559Z,9.60
2019-03-08T00:56:12.979Z,9.80
2019-03-08T00:58:39.468Z,9.50
2019-03-08T01:01:06.132Z,9.70
2019-03-08T01:03:32.856Z,9.70
2019-03-08T01:05:59.499Z,9.60
2019-03-08T01:08:25.964Z,9.50
2019-03-08T01:10:52.440Z,9.80
2019-03-08T01:13:19.114Z,9.60
2019-03-08T01:15:45.568Z,9.60
2019-03-08T01:18:12.040Z,9.60
2019-03-08T01:20:38.612Z,9.60
2019-03-08T01:23:05.520Z,9.50
2019-03-08T01:25:32.182Z,9.60
2019-03-08T01:28:01.148Z,9.70
2019-03-08T01:30:28.513Z,9.50
2019-03-08T01:32:55.169Z,9.70
2019-03-08T01:35:21.845Z,9.40
2019-03-08T01:37:48.792Z,9.50
2019-03-08T01:40:15.648Z,9.70
2019-03-08T01:42:43.356Z,9.60
2019-03-08T01:45:11.498Z,9.30
2019-03-08T01:47:37.939Z,9.20
2019-03-08T01:50:06.920Z,9.20
2019-03-08T01:52:33.368Z,9.20
2019-03-08T01:55:00.286Z,9.40
2019-03-08T01:57:26.816Z,9.50
2019-03-08T01:59:53.329Z,9.40
2019-03-08T02:02:19.883Z,9.50
2019-03-08T02:04:46.561Z,9.50
2019-03-08T02:07:13.218Z,9.10
2019-03-08T02:09:39.793Z,9.40
2019-03-08T02:12:06.660Z,9.10
2019-03-08T02:14:33.307Z,8.90
2019-03-08T02:17:00.265Z,9.30
2019-03-08T02:19:26.926Z,9.10
2019-03-08T02:21:53.416Z,9.40
2019-03-08T02:24:19.860Z,9.40
2019-03-08T02:26:46.844Z,9.00
2019-03-08T02:29:13.985Z,9.10
2019-03-08T02:31:40.927Z,8.90
2019-03-08T02:34:07.486Z,8.80
2019-03-08T02:36:33.979Z,8.80
2019-03-08T02:39:00.437Z,8.70
2019-03-08T02:41:26.901Z,9.10
2019-03-08T02:43:53.372Z,9.00
2019-03-08T02:46:21.032Z,9.00
2019-03-08T02:48:47.896Z,8.70
2019-03-08T02:51:14.350Z,8.70
2019-03-08T02:53:40.927Z,8.40
2019-03-08T02:56:07.499Z,8.30
2019-03-08T02:58:34.064Z,8.10
2019-03-08T03:01:00.548Z,8.40
2019-03-08T03:03:27.026Z,8.60
2019-03-08T03:05:53.672Z,8.30
2019-03-08T03:08:20.460Z,8.40
2019-03-08T03:10:47.008Z,8.20
2019-03-08T03:13:13.873Z,8.50
2019-03-08T03:15:40.725Z,8.70
2019-03-08T03:18:07.224Z,8.70
2019-03-08T03:20:33.683Z,8.40
2019-03-08T03:23:00.330Z,8.60
2019-03-08T03:25:26.806Z,8.70
2019-03-08T03:27:53.418Z,8.70
2019-03-08T03:30:20.085Z,8.70
2019-03-08T03:32:46.542Z,8.40
2019-03-08T03:35:13.243Z,8.60
2019-03-08T03:37:39.903Z,8.60
2019-03-08T03:40:09.688Z,8.40
2019-03-08T03:42:36.240Z,8.40
2019-03-08T03:45:05.440Z,8.40
2019-03-08T03:47:32.335Z,8.50
2019-03-08T03:49:59.024Z,8.50
2019-03-08T03:52:25.561Z,8.40
2019-03-08T03:54:52.456Z,8.30
2019-03-08T03:57:19.103Z,8.30
2019-03-08T03:59:45.797Z,8.10
2019-03-08T04:02:12.385Z,8.30
2019-03-08T04:04:39.155Z,8.00
2019-03-08T04:07:05.645Z,8.10
2019-03-08T04:09:32.224Z,7.80
2019-03-08T04:11:59.227Z,7.70
2019-03-08T04:14:25.704Z,7.20
2019-03-08T04:16:52.152Z,6.60
2019-03-08T04:19:18.929Z,6.80
2019-03-08T04:21:45.372Z,6.60
2019-03-08T04:24:11.943Z,6.90
2019-03-08T04:26:38.413Z,6.80
2019-03-08T04:29:04.992Z,6.60
2019-03-08T04:31:31.702Z,6.50
2019-03-08T04:33:58.259Z,6.50
2019-03-08T04:36:25.199Z,6.70
2019-03-08T04:38:51.758Z,6.70
2019-03-08T04:41:18.340Z,6.60
2019-03-08T04:43:44.784Z,6.80
2019-03-08T04:46:11.260Z,6.60
2019-03-08T04:48:37.908Z,6.80
2019-03-08T04:51:04.732Z,6.60
2019-03-08T04:53:31.311Z,6.80
2019-03-08T04:55:58.113Z,6.60
2019-03-08T04:58:24.568Z,6.50
2019-03-08T05:00:51.036Z,6.80
2019-03-08T05:03:17.711Z,6.80
2019-03-08T05:05:44.594Z,6.80
2019-03-08T05:08:11.132Z,6.50
2019-03-08T05:10:37.599Z,6.50
2019-03-08T05:13:04.264Z,6.30
2019-03-08T05:15:30.766Z,6.40
2019-03-08T05:17:58.501Z,6.70
2019-03-08T05:20:25.000Z,6.80
2019-03-08T05:22:51.680Z,6.60
2019-03-08T05:25:21.256Z,6.20
2019-03-08T05:27:47.836Z,6.80
2019-03-08T05:30:15.304Z,6.50
2019-03-08T05:32:42.059Z,6.40
2019-03-08T05:35:09.461Z,6.30
2019-03-08T05:37:36.021Z,6.80
2019-03-08T05:40:04.881Z,6.80
2019-03-08T05:42:31.368Z,6.60
2019-03-08T05:44:57.843Z,6.30
2019-03-08T05:47:24.308Z,6.50
2019-03-08T05:49:50.763Z,6.20
2019-03-08T05:52:17.245Z,6.70
2019-03-08T05:54:43.793Z,6.70
2019-03-08T05:57:10.345Z,6.70
2019-03-08T05:59:36.915Z,6.50
2019-03-08T06:02:03.384Z,6.50
2019-03-08T06:04:30.065Z,6.40
2019-03-08T06:06:56.610Z,6.50
2019-03-08T06:09:23.091Z,6.40
2019-03-08T06:11:49.953Z,6.50
2019-03-08T06:14:16.772Z,6.50
2019-03-08T06:16:43.527Z,6.60
2019-03-08T06:19:10.101Z,6.80
2019-03-08T06:21:36.915Z,6.70
2019-03-08T06:24:03.691Z,6.70
2019-03-08T06:26:30.142Z,6.70
2019-03-08T06:28:56.608Z,7.00
2019-03-08T06:31:23.068Z,6.60
2019-03-08T06:33:49.546Z,6.50
2019-03-08T06:36:16.404Z,6.60
2019-03-08T06:38:43.157Z,6.80
2019-03-08T06:41:09.623Z,6.90
2019-03-08T06:43:36.219Z,6.80
2019-03-08T06:46:02.774Z,7.00
2019-03-08T06:48:29.228Z,7.00
2019-03-08T06:50:55.789Z,7.10
2019-03-08T06:53:22.247Z,7.10
2019-03-08T06:55:48.703Z,6.80
2019-03-08T06:58:17.128Z,6.80
2019-03-08T07:00:48.171Z,7.20
2019-03-08T07:03:14.935Z,6.80
2019-03-08T07:05:41.508Z,6.80
2019-03-08T07:08:08.348Z,7.30
2019-03-08T07:10:35.016Z,7.10
2019-03-08T07:13:03.559Z,7.50
2019-03-08T07:15:30.332Z,7.40
2019-03-08T07:17:56.795Z,7.40
2019-03-08T07:20:34.491Z,7.30
2019-03-08T07:23:02.951Z,7.50
2019-03-08T07:25:52.438Z,7.30
2019-03-08T07:28:36.242Z,7.40
2019-03-08T07:31:21.621Z,7.40
2019-03-08T07:34:08.669Z,7.50
2019-03-08T07:36:54.013Z,7.40
2019-03-08T07:39:34.490Z,7.60
2019-03-08T07:42:19.792Z,7.50
2019-03-08T07:45:05.004Z,7.50
2019-03-08T07:47:36.526Z,7.60
2019-03-08T07:50:30.024Z,7.70
2019-03-08T07:53:07.593Z,7.80
2019-03-08T07:55:38.776Z,7.80
2019-03-08T07:58:09.951Z,7.80
2019-03-08T08:00:55.317Z,8.10
2019-03-08T08:03:26.916Z,8.20
2019-03-08T08:05:58.550Z,7.80
2019-03-08T08:08:30.018Z,8.10
2019-03-08T08:11:16.782Z,7.80
2019-03-08T08:14:03.507Z,8.00
2019-03-08T08:16:47.079Z,8.10
2019-03-08T08:19:27.917Z,7.90
2019-03-08T08:21:59.680Z,8.00
2019-03-08T08:24:31.332Z,8.30
2019-03-08T08:27:16.517Z,8.30
2019-03-08T08:30:00.330Z,8.30
2019-03-08T08:32:37.836Z,8.40
2019-03-08T08:35:12.884Z,8.60
2019-03-08T08:37:57.886Z,8.50
2019-03-08T08:40:32.304Z,8.60
2019-03-08T08:43:17.764Z,8.40
2019-03-08T08:45:52.654Z,8.60
2019-03-08T08:48:37.570Z,8.30
2019-03-08T08:51:09.005Z,8.20
2019-03-08T08:53:37.783Z,8.10
2019-03-08T08:56:06.240Z,8.20
2019-03-08T08:58:51.436Z,8.40
2019-03-08T09:01:22.769Z,8.90
2019-03-08T09:04:08.451Z,8.80
2019-03-08T09:06:37.005Z,9.50
2019-03-08T09:09:08.785Z,9.30
2019-03-08T09:11:44.118Z,9.70
2019-03-08T09:14:07.429Z,9.30
2019-03-08T09:16:41.817Z,9.10
2019-03-08T09:19:22.628Z,9.00
2019-03-08T09:22:08.066Z,8.90
2019-03-08T09:24:36.546Z,9.10
2019-03-08T09:27:17.284Z,9.00
2019-03-08T09:29:45.764Z,9.10
2019-03-08T09:32:20.277Z,8.80
2019-03-08T09:34:57.520Z,8.90
2019-03-08T09:37:26.187Z,9.40
2019-03-08T09:40:06.611Z,9.30
2019-03-08T09:42:53.616Z,9.30
2019-03-08T09:45:24.971Z,9.70
2019-03-08T09:47:56.776Z,9.60
2019-03-08T09:50:37.131Z,9.40
2019-03-08T09:53:08.501Z,9.70
2019-03-08T09:55:36.996Z,9.40
2019-03-08T09:58:06.859Z,8.90
2019-03-08T10:00:47.936Z,9.10
2019-03-08T10:03:19.302Z,9.10
2019-03-08T10:06:03.390Z,9.70
2019-03-08T10:08:32.041Z,10.50
2019-03-08T10:11:00.461Z,10.00
2019-03-08T10:13:31.833Z,9.80
2019-03-08T10:16:00.664Z,9.80
2019-03-08T10:18:35.066Z,10.60
2019-03-08T10:21:03.969Z,11.60
2019-03-08T10:23:38.408Z,11.80
2019-03-08T10:26:12.817Z,11.90
2019-03-08T10:28:44.456Z,11.10
2019-03-08T10:31:16.131Z,10.30
2019-03-08T10:34:01.397Z,10.00
2019-03-08T10:36:44.992Z,10.00
2019-03-08T10:39:13.447Z,10.90
2019-03-08T10:41:45.052Z,12.50
2019-03-08T10:44:15.403Z,12.90
2019-03-08T10:46:46.620Z,12.20
2019-03-08T10:49:14.979Z,11.90
2019-03-08T10:51:55.639Z,11.60
2019-03-08T10:54:26.966Z,11.50
2019-03-08T10:56:55.964Z,11.70
2019-03-08T10:59:27.893Z,11.70
2019-03-08T11:01:56.461Z,11.20
2019-03-08T11:04:28.248Z,10.90
2019-03-08T11:06:59.621Z,11.30
2019-03-08T11:09:37.180Z,13.00
2019-03-08T11:12:22.295Z,12.70
2019-03-08T11:14:50.795Z,11.80
2019-03-08T11:17:31.151Z,11.50
2019-03-08T11:19:59.646Z,11.30
2019-03-08T11:22:28.196Z,10.50
2019-03-08T11:25:08.281Z,10.50
2019-03-08T11:27:32.897Z,10.10
2019-03-08T11:30:10.605Z,10.30
2019-03-08T11:32:42.012Z,10.60
2019-03-08T11:35:19.704Z,10.60
2019-03-08T11:37:51.709Z,10.60
2019-03-08T11:40:23.440Z,10.50
2019-03-08T11:43:01.168Z,10.70
2019-03-08T11:45:38.483Z,10.80
2019-03-08T11:48:13.032Z,11.20
2019-03-08T11:50:53.808Z,10.80
2019-03-08T11:53:37.509Z,10.40
2019-03-08T11:56:22.740Z,10.10
2019-03-08T11:59:10.000Z,10.20
2019-03-08T12:01:55.172Z,10.10
2019-03-08T12:04:23.719Z,9.70
2019-03-08T12:07:09.191Z,9.60
2019-03-08T12:09:37.924Z,9.90
2019-03-08T12:12:06.743Z,9.70
2019-03-08T12:14:41.268Z,9.70
2019-03-08T12:17:12.599Z,10.10
2019-03-08T12:19:49.941Z,10.10
2019-03-08T12:22:18.426Z,10.00
2019-03-08T12:24:47.237Z,10.60
2019-03-08T12:27:18.452Z,11.30
2019-03-08T12:29:46.855Z,12.90
2019-03-08T12:32:21.094Z,14.10
2019-03-08T12:34:49.502Z,15.00
2019-03-08T12:37:30.411Z,15.10
2019-03-08T12:39:59.431Z,13.80
2019-03-08T12:42:42.937Z,12.90
2019-03-08T12:45:11.892Z,12.40
2019-03-08T12:47:40.705Z,11.90
2019-03-08T12:50:12.582Z,11.70
2019-03-08T12:52:41.078Z,11.20
2019-03-08T12:55:10.748Z,11.00
2019-03-08T12:57:54.420Z,11.30
2019-03-08T13:00:23.013Z,11.20
2019-03-08T13:03:10.126Z,11.70
2019-03-08T13:05:55.044Z,12.90
2019-03-08T13:08:23.613Z,13.50
2019-03-08T13:10:50.435Z,13.80
2019-03-08T13:13:17.010Z,12.80
2019-03-08T13:15:43.595Z,12.40
2019-03-08T13:18:10.265Z,11.70
2019-03-08T13:20:36.873Z,11.50
2019-03-08T13:23:03.625Z,11.30
2019-03-08T13:25:30.104Z,11.20
2019-03-08T13:27:56.553Z,11.90
2019-03-08T13:30:24.442Z,12.20
2019-03-08T13:32:51.025Z,12.70
2019-03-08T13:35:17.946Z,12.90
2019-03-08T13:37:44.773Z,12.20
2019-03-08T13:40:13.447Z,12.20
2019-03-08T13:42:39.961Z,11.90
2019-03-08T13:45:13.078Z,11.80
2019-03-08T13:47:40.039Z,11.90
2019-03-08T13:50:09.819Z,11.30
2019-03-08T13:52:36.418Z,11.60
2019-03-08T13:55:06.047Z,11.30
2019-03-08T13:57:32.652Z,11.80
2019-03-08T13:59:59.245Z,11.80
2019-03-08T14:02:25.729Z,11.70
2019-03-08T14:04:52.742Z,11.80
2019-03-08T14:07:19.317Z,11.80
2019-03-08T14:09:45.892Z,11.80
2019-03-08T14:12:13.459Z,11.80
2019-03-08T14:14:40.040Z,11.70
2019-03-08T14:17:26.350Z,11.90
2019-03-08T14:19:53.267Z,11.50
2019-03-08T14:22:20.049Z,11.60
2019-03-08T14:24:46.542Z,11.90
2019-03-08T14:27:13.114Z,11.60
2019-03-08T14:29:40.976Z,11.80
2019-03-08T14:32:07.461Z,11.70
2019-03-08T14:34:34.072Z,11.60
2019-03-08T14:37:00.643Z,11.60
2019-03-08T14:39:29.057Z,11.60
2019-03-08T14:42:12.527Z,11.70
2019-03-08T14:44:50.156Z,11.70
2019-03-08T14:47:18.682Z,11.80
2019-03-08T14:49:45.157Z,11.60
2019-03-08T14:52:12.239Z,11.30
2019-03-08T14:54:42.325Z,11.60
2019-03-08T14:57:09.311Z,11.60
2019-03-08T14:59:35.921Z,12.20
2019-03-08T15:02:02.963Z,12.70
2019-03-08T15:04:33.094Z,12.80
2019-03-08T15:06:57.692Z,13.40
2019-03-08T15:09:24.169Z,13.70
2019-03-08T15:11:50.870Z,14.00
2019-03-08T15:14:17.631Z,13.80
2019-03-08T15:16:44.249Z,13.80
2019-03-08T15:19:10.822Z,13.20
2019-03-08T15:21:41.491Z,13.70
2019-03-08T15:24:06.242Z,13.90
2019-03-08T15:26:32.989Z,14.20
2019-03-08T15:28:59.809Z,14.10
2019-03-08T15:31:26.384Z,13.30
2019-03-08T15:33:53.364Z,13.30
2019-03-08T15:36:19.923Z,13.50
2019-03-08T15:38:46.533Z,13.20
2019-03-08T15:41:13.002Z,12.90
2019-03-08T15:43:39.597Z,12.20
2019-03-08T15:46:06.151Z,12.40
2019-03-08T15:48:32.860Z,12.50
2019-03-08T15:50:59.608Z,11.90
2019-03-08T15:53:26.519Z,11.80
2019-03-08T15:55:53.468Z,11.80
2019-03-08T15:58:20.210Z,12.40
2019-03-08T16:00:47.087Z,12.40
2019-03-08T16:03:13.945Z,12.10
2019-03-08T16:05:40.591Z,12.30
2019-03-08T16:08:07.157Z,11.80
2019-03-08T16:10:33.852Z,11.70
2019-03-08T16:13:02.596Z,11.80
2019-03-08T16:15:29.200Z,11.60
2019-03-08T16:17:55.874Z,11.30
2019-03-08T16:20:22.458Z,11.60
2019-03-08T16:22:49.113Z,11.30
2019-03-08T16:25:16.400Z,11.30
2019-03-08T16:27:43.177Z,11.30
2019-03-08T16:30:24.056Z,11.40
2019-03-08T16:33:08.832Z,11.30
2019-03-08T16:35:40.040Z,11.30
2019-03-08T16:38:20.818Z,11.30
2019-03-08T16:40:49.307Z,11.50
2019-03-08T16:43:23.867Z,11.30
2019-03-08T16:45:58.280Z,11.20
2019-03-08T16:48:26.792Z,11.40
2019-03-08T16:50:59.773Z,11.10
2019-03-08T16:53:25.664Z,10.70
2019-03-08T16:56:06.165Z,11.30
2019-03-08T16:58:37.534Z,10.80
2019-03-08T17:01:15.101Z,11.00
2019-03-08T17:03:43.754Z,10.90
2019-03-08T17:06:30.616Z,10.80
2019-03-08T17:09:01.971Z,10.80
2019-03-08T17:11:30.366Z,10.80
2019-03-08T17:14:04.719Z,10.90
2019-03-08T17:16:49.963Z,10.80
2019-03-08T17:19:21.553Z,10.50
2019-03-08T17:21:49.932Z,10.60
2019-03-08T17:24:27.220Z,10.50
2019-03-08T17:26:55.668Z,10.50
2019-03-08T17:29:30.439Z,10.10
2019-03-08T17:32:08.333Z,10.00
2019-03-08T17:34:53.301Z,10.10
2019-03-08T17:37:27.695Z,10.10
2019-03-08T17:39:56.625Z,10.10
2019-03-08T17:42:43.169Z,10.00
2019-03-08T17:45:11.872Z,10.20
2019-03-08T17:47:55.450Z,10.20
2019-03-08T17:50:23.928Z,10.10
2019-03-08T17:53:01.716Z,9.60
2019-03-08T17:55:30.114Z,9.70
2019-03-08T17:58:14.067Z,9.70
2019-03-08T18:00:45.597Z,10.00
2019-03-08T18:03:16.924Z,9.70
2019-03-08T18:05:45.305Z,9.70
2019-03-08T18:08:13.871Z,9.90
2019-03-08T18:10:42.336Z,9.50
2019-03-08T18:13:10.896Z,9.80
2019-03-08T18:15:54.608Z,9.50
2019-03-08T18:18:38.572Z,9.80
2019-03-08T18:21:10.061Z,9.80
2019-03-08T18:23:38.535Z,9.70
2019-03-08T18:26:07.029Z,9.70
2019-03-08T18:28:44.652Z,9.70
2019-03-08T18:31:13.148Z,9.60
2019-03-08T18:33:57.316Z,9.50
2019-03-08T18:36:42.424Z,9.70
2019-03-08T18:39:10.784Z,9.70
2019-03-08T18:41:39.449Z,9.50
2019-03-08T18:44:07.941Z,9.70
2019-03-08T18:46:42.007Z,9.60
2019-03-08T18:49:10.378Z,9.70
2019-03-08T18:51:38.845Z,9.60
2019-03-08T18:54:24.342Z,9.70
2019-03-08T18:56:55.726Z,9.80
2019-03-08T18:59:24.200Z,9.50
2019-03-08T19:01:55.838Z,9.40
2019-03-08T19:04:24.131Z,9.70
2019-03-08T19:07:12.352Z,9.30
2019-03-08T19:09:41.056Z,9.00
2019-03-08T19:12:12.139Z,9.20
2019-03-08T19:14:49.795Z,9.40
2019-03-08T19:17:18.481Z,9.20
2019-03-08T19:19:47.098Z,9.30
2019-03-08T19:22:32.884Z,9.70
2019-03-08T19:25:01.566Z,9.60
2019-03-08T19:27:41.816Z,9.70
2019-03-08T19:30:13.727Z,9.90
2019-03-08T19:32:48.182Z,9.50
2019-03-08T19:35:22.729Z,9.70
2019-03-08T19:38:08.417Z,9.60
2019-03-08T19:40:39.512Z,9.50
2019-03-08T19:43:10.989Z,9.40
2019-03-08T19:45:48.700Z,9.20
2019-03-08T19:48:17.369Z,9.50
2019-03-08T19:50:51.792Z,9.40
2019-03-08T19:53:20.139Z,9.50
2019-03-08T19:56:00.817Z,9.20
2019-03-08T19:58:41.332Z,9.40
2019-03-08T20:01:15.465Z,9.40
2019-03-08T20:04:00.667Z,9.20
2019-03-08T20:06:38.341Z,9.40
2019-03-08T20:09:08.114Z,9.30
2019-03-08T20:11:36.569Z,9.20
2019-03-08T20:14:20.070Z,9.50
2019-03-08T20:16:51.484Z,9.70
2019-03-08T20:19:19.952Z,9.70
2019-03-08T20:21:51.117Z,9.10
2019-03-08T20:24:22.251Z,9.20
2019-03-08T20:26:59.544Z,9.50
2019-03-08T20:29:40.065Z,9.20
2019-03-08T20:32:14.500Z,9.20
2019-03-08T20:34:45.981Z,9.40
2019-03-08T20:37:23.518Z,9.40
2019-03-08T20:39:52.540Z,9.40
2019-03-08T20:42:20.933Z,9.10
2019-03-08T20:45:04.640Z,8.90
2019-03-08T20:47:32.930Z,9.20
2019-03-08T20:49:59.610Z,9.40
2019-03-08T20:52:26.041Z,9.10
2019-03-08T20:54:52.716Z,9.20
2019-03-08T20:57:19.280Z,9.20
2019-03-08T20:59:45.756Z,9.40
2019-03-08T21:02:12.768Z,9.40
2019-03-08T21:04:39.245Z,9.10
2019-03-08T21:07:05.793Z,9.30
2019-03-08T21:09:32.290Z,9.40
2019-03-08T21:11:58.823Z,9.40
2019-03-08T21:14:25.326Z,9.40
2019-03-08T21:16:51.885Z,9.10
2019-03-08T21:19:18.448Z,8.90
2019-03-08T21:21:44.901Z,9.30
2019-03-08T21:24:11.481Z,8.90
2019-03-08T21:26:37.936Z,8.90
2019-03-08T21:29:04.524Z,9.40
2019-03-08T21:31:31.071Z,9.20
2019-03-08T21:33:57.631Z,9.30
2019-03-08T21:36:24.309Z,9.40
2019-03-08T21:38:51.042Z,9.40
2019-03-08T21:41:17.548Z,9.50
2019-03-08T21:43:44.100Z,9.60
2019-03-08T21:46:10.589Z,9.30
2019-03-08T21:48:37.058Z,9.20
2019-03-08T21:51:03.714Z,9.50
2019-03-08T21:53:30.165Z,9.20
2019-03-08T21:55:56.749Z,9.30
2019-03-08T21:58:23.205Z,9.70
2019-03-08T22:00:49.679Z,9.80
2019-03-08T22:03:16.574Z,9.20
2019-03-08T22:05:43.162Z,9.60
2019-03-08T22:08:17.038Z,9.60
2019-03-08T22:10:42.992Z,9.70
2019-03-08T22:13:10.117Z,9.70
2019-03-08T22:15:38.780Z,9.60
2019-03-08T22:18:05.728Z,9.50
2019-03-08T22:20:32.383Z,9.70
2019-03-08T22:22:58.864Z,9.50
2019-03-08T22:25:25.415Z,9.60
2019-03-08T22:27:52.079Z,9.80
2019-03-08T22:30:19.644Z,9.60
2019-03-08T22:32:46.311Z,9.80
2019-03-08T22:35:12.688Z,9.50
2019-03-08T22:37:39.170Z,9.70
2019-03-08T22:40:07.555Z,9.60
2019-03-08T22:42:34.233Z,9.70
2019-03-08T22:45:00.805Z,9.50
2019-03-08T22:47:27.269Z,9.60
2019-03-08T22:49:53.827Z,9.70
2019-03-08T22:52:20.606Z,9.80
2019-03-08T22:54:47.330Z,9.50
2019-03-08T22:57:13.912Z,9.60
2019-03-08T22:59:40.383Z,9.70
2019-03-08T23:02:07.668Z,9.80
2019-03-08T23:04:34.444Z,9.60
2019-03-08T23:07:01.000Z,9.70
2019-03-08T23:09:27.890Z,9.70
2019-03-08T23:11:54.734Z,9.80
2019-03-08T23:14:21.215Z,9.80
2019-03-08T23:16:47.762Z,10.10
2019-03-08T23:19:14.472Z,9.90
2019-03-08T23:21:40.920Z,9.80
2019-03-08T23:24:07.374Z,10.00
2019-03-08T23:26:36.510Z,10.00
2019-03-08T23:29:10.922Z,9.80
2019-03-08T23:31:56.548Z,10.10
2019-03-08T23:34:23.117Z,10.10
2019-03-08T23:36:49.623Z,9.60
2019-03-08T23:39:16.533Z,10.00
2019-03-08T23:41:43.496Z,10.10
2019-03-08T23:44:10.239Z,10.10
2019-03-08T23:46:36.732Z,10.10
2019-03-08T23:49:03.492Z,9.90
2019-03-08T23:51:30.269Z,9.90
2019-03-08T23:53:56.716Z,10.10
2019-03-08T23:56:23.514Z,10.10
2019-03-08T23:58:49.991Z,9.90
